sensor_id;sensor_type;location;lat;lon;timestamp;temperature;humidity
71237;DHT22;58984;51.960;5.582;2023-01-24T00:00:10;10.20;56.00
71237;DHT22;58984;51.960;5.582;2023-01-24T00:02:36;10.20;55.90
71237;DHT22;58984;51.960;5.582;2023-01-24T00:05:01;10.20;56.00
71237;DHT22;58984;51.960;5.582;2023-01-24T00:07:27;10.20;56.00
71237;DHT22;58984;51.960;5.582;2023-01-24T00:09:53;10.20;56.00
71237;DHT22;58984;51.960;5.582;2023-01-24T00:12:18;10.10;55.90
71237;DHT22;58984;51.960;5.582;2023-01-24T00:14:44;10.20;56.00
71237;DHT22;58984;51.960;5.582;2023-01-24T00:17:09;10.20;56.00
71237;DHT22;58984;51.960;5.582;2023-01-24T00:19:35;10.20;56.00
71237;DHT22;58984;51.960;5.582;2023-01-24T00:22:02;10.20;55.90
71237;DHT22;58984;51.960;5.582;2023-01-24T00:24:28;10.20;55.90
71237;DHT22;58984;51.960;5.582;2023-01-24T00:26:55;10.20;55.90
71237;DHT22;58984;51.960;5.582;2023-01-24T00:29:20;10.20;55.90
71237;DHT22;58984;51.960;5.582;2023-01-24T00:31:46;10.20;55.90
71237;DHT22;58984;51.960;5.582;2023-01-24T00:34:11;10.20;56.00
71237;DHT22;58984;51.960;5.582;2023-01-24T00:36:37;10.20;56.00
71237;DHT22;58984;51.960;5.582;2023-01-24T00:39:02;10.20;55.90
71237;DHT22;58984;51.960;5.582;2023-01-24T00:41:28;10.20;55.90
71237;DHT22;58984;51.960;5.582;2023-01-24T00:43:53;10.20;56.00
71237;DHT22;58984;51.960;5.582;2023-01-24T00:46:19;10.10;55.90
71237;DHT22;58984;51.960;5.582;2023-01-24T00:48:45;10.20;55.80
71237;DHT22;58984;51.960;5.582;2023-01-24T00:51:10;10.20;55.90
71237;DHT22;58984;51.960;5.582;2023-01-24T00:53:36;10.20;55.80
71237;DHT22;58984;51.960;5.582;2023-01-24T00:56:01;10.20;55.90
71237;DHT22;58984;51.960;5.582;2023-01-24T00:58:27;10.20;55.50
71237;DHT22;58984;51.960;5.582;2023-01-24T01:00:56;10.10;55.80
71237;DHT22;58984;51.960;5.582;2023-01-24T01:03:23;10.20;55.90
71237;DHT22;58984;51.960;5.582;2023-01-24T01:05:49;10.10;55.80
71237;DHT22;58984;51.960;5.582;2023-01-24T01:08:15;10.10;55.80
71237;DHT22;58984;51.960;5.582;2023-01-24T01:10:40;10.20;55.90
71237;DHT22;58984;51.960;5.582;2023-01-24T01:13:06;10.20;55.80
71237;DHT22;58984;51.960;5.582;2023-01-24T01:15:32;10.10;55.70
71237;DHT22;58984;51.960;5.582;2023-01-24T01:17:58;10.10;55.70
71237;DHT22;58984;51.960;5.582;2023-01-24T01:20:24;10.10;55.70
71237;DHT22;58984;51.960;5.582;2023-01-24T01:22:50;10.10;55.70
71237;DHT22;58984;51.960;5.582;2023-01-24T01:25:16;10.10;55.80
71237;DHT22;58984;51.960;5.582;2023-01-24T01:27:41;10.10;55.80
71237;DHT22;58984;51.960;5.582;2023-01-24T01:30:07;10.10;55.80
71237;DHT22;58984;51.960;5.582;2023-01-24T01:32:33;10.10;55.80
71237;DHT22;58984;51.960;5.582;2023-01-24T01:34:59;10.10;55.80
71237;DHT22;58984;51.960;5.582;2023-01-24T01:37:24;10.10;55.80
71237;DHT22;58984;51.960;5.582;2023-01-24T01:39:50;10.10;55.80
71237;DHT22;58984;51.960;5.582;2023-01-24T01:42:16;10.10;55.70
71237;DHT22;58984;51.960;5.582;2023-01-24T01:44:41;10.10;55.80
71237;DHT22;58984;51.960;5.582;2023-01-24T01:47:13;10.10;55.70
71237;DHT22;58984;51.960;5.582;2023-01-24T01:50:27;10.10;55.70
71237;DHT22;58984;51.960;5.582;2023-01-24T01:52:31;10.20;55.90
71237;DHT22;58984;51.960;5.582;2023-01-24T01:55:02;10.10;55.60
71237;DHT22;58984;51.960;5.582;2023-01-24T01:57:32;10.10;55.60
71237;DHT22;58984;51.960;5.582;2023-01-24T02:00:03;10.10;55.70
71237;DHT22;58984;51.960;5.582;2023-01-24T02:02:30;10.10;55.80
71237;DHT22;58984;51.960;5.582;2023-01-24T02:05:00;10.10;55.80
71237;DHT22;58984;51.960;5.582;2023-01-24T02:07:43;10.10;55.80
71237;DHT22;58984;51.960;5.582;2023-01-24T02:10:11;10.00;55.70
71237;DHT22;58984;51.960;5.582;2023-01-24T02:12:43;10.10;55.70
71237;DHT22;58984;51.960;5.582;2023-01-24T02:15:19;10.00;55.70
71237;DHT22;58984;51.960;5.582;2023-01-24T02:18:06;10.00;55.70
71237;DHT22;58984;51.960;5.582;2023-01-24T02:20:47;10.10;55.70
71237;DHT22;58984;51.960;5.582;2023-01-24T02:23:17;10.00;55.70
71237;DHT22;58984;51.960;5.582;2023-01-24T02:28:35;10.00;55.60
71237;DHT22;58984;51.960;5.582;2023-01-24T02:31:03;10.10;55.70
71237;DHT22;58984;51.960;5.582;2023-01-24T02:33:29;10.00;55.60
71237;DHT22;58984;51.960;5.582;2023-01-24T02:38:45;10.00;55.70
71237;DHT22;58984;51.960;5.582;2023-01-24T02:41:13;10.10;55.70
71237;DHT22;58984;51.960;5.582;2023-01-24T02:43:44;10.00;55.70
71237;DHT22;58984;51.960;5.582;2023-01-24T02:46:11;10.00;55.70
71237;DHT22;58984;51.960;5.582;2023-01-24T02:48:37;10.00;55.70
71237;DHT22;58984;51.960;5.582;2023-01-24T02:51:02;10.00;55.60
71237;DHT22;58984;51.960;5.582;2023-01-24T02:53:47;10.10;55.70
71237;DHT22;58984;51.960;5.582;2023-01-24T02:56:12;10.00;55.60
71237;DHT22;58984;51.960;5.582;2023-01-24T02:58:56;10.10;55.70
71237;DHT22;58984;51.960;5.582;2023-01-24T03:01:23;10.00;55.70
71237;DHT22;58984;51.960;5.582;2023-01-24T03:03:49;10.00;55.70
71237;DHT22;58984;51.960;5.582;2023-01-24T03:06:16;10.00;55.70
71237;DHT22;58984;51.960;5.582;2023-01-24T03:08:42;10.00;55.70
71237;DHT22;58984;51.960;5.582;2023-01-24T03:11:08;10.00;55.60
71237;DHT22;58984;51.960;5.582;2023-01-24T03:13:34;10.00;55.70
71237;DHT22;58984;51.960;5.582;2023-01-24T03:16:18;10.10;55.70
71237;DHT22;58984;51.960;5.582;2023-01-24T03:19:03;10.00;55.60
71237;DHT22;58984;51.960;5.582;2023-01-24T03:21:48;10.00;55.60
71237;DHT22;58984;51.960;5.582;2023-01-24T03:24:32;10.00;55.60
71237;DHT22;58984;51.960;5.582;2023-01-24T03:27:16;10.00;55.70
71237;DHT22;58984;51.960;5.582;2023-01-24T03:30:01;10.00;55.70
71237;DHT22;58984;51.960;5.582;2023-01-24T03:32:46;10.00;55.70
71237;DHT22;58984;51.960;5.582;2023-01-24T03:35:30;10.00;55.70
71237;DHT22;58984;51.960;5.582;2023-01-24T03:37:56;10.00;55.70
71237;DHT22;58984;51.960;5.582;2023-01-24T03:40:40;10.00;55.60
71237;DHT22;58984;51.960;5.582;2023-01-24T03:43:06;10.00;55.60
71237;DHT22;58984;51.960;5.582;2023-01-24T03:45:37;10.00;55.70
71237;DHT22;58984;51.960;5.582;2023-01-24T03:48:08;10.00;55.60
71237;DHT22;58984;51.960;5.582;2023-01-24T03:50:39;10.00;55.60
71237;DHT22;58984;51.960;5.582;2023-01-24T03:53:26;10.00;55.60
71237;DHT22;58984;51.960;5.582;2023-01-24T03:55:59;10.00;55.60
71237;DHT22;58984;51.960;5.582;2023-01-24T03:58:27;10.00;55.60
71237;DHT22;58984;51.960;5.582;2023-01-24T04:00:53;10.00;55.60
71237;DHT22;58984;51.960;5.582;2023-01-24T04:03:19;10.00;55.70
71237;DHT22;58984;51.960;5.582;2023-01-24T04:05:48;10.00;55.70
71237;DHT22;58984;51.960;5.582;2023-01-24T04:08:15;10.00;55.70
71237;DHT22;58984;51.960;5.582;2023-01-24T04:10:40;10.00;55.70
71237;DHT22;58984;51.960;5.582;2023-01-24T04:13:07;10.00;55.70
71237;DHT22;58984;51.960;5.582;2023-01-24T04:15:33;10.00;55.70
71237;DHT22;58984;51.960;5.582;2023-01-24T04:18:01;10.00;55.70
71237;DHT22;58984;51.960;5.582;2023-01-24T04:20:28;10.00;55.70
71237;DHT22;58984;51.960;5.582;2023-01-24T04:22:54;10.00;55.70
71237;DHT22;58984;51.960;5.582;2023-01-24T04:25:20;10.00;55.60
71237;DHT22;58984;51.960;5.582;2023-01-24T04:27:46;10.00;55.60
71237;DHT22;58984;51.960;5.582;2023-01-24T04:30:14;10.00;55.60
71237;DHT22;58984;51.960;5.582;2023-01-24T04:32:40;10.00;55.60
71237;DHT22;58984;51.960;5.582;2023-01-24T04:35:14;10.00;55.60
71237;DHT22;58984;51.960;5.582;2023-01-24T04:37:43;10.00;55.60
71237;DHT22;58984;51.960;5.582;2023-01-24T04:40:09;10.00;55.60
71237;DHT22;58984;51.960;5.582;2023-01-24T04:42:34;10.00;55.60
71237;DHT22;58984;51.960;5.582;2023-01-24T04:45:02;10.00;55.60
71237;DHT22;58984;51.960;5.582;2023-01-24T04:47:29;10.00;55.60
71237;DHT22;58984;51.960;5.582;2023-01-24T04:49:54;10.00;55.70
71237;DHT22;58984;51.960;5.582;2023-01-24T04:52:20;10.00;55.60
71237;DHT22;58984;51.960;5.582;2023-01-24T04:54:45;10.00;55.60
71237;DHT22;58984;51.960;5.582;2023-01-24T04:57:11;10.00;55.60
71237;DHT22;58984;51.960;5.582;2023-01-24T04:59:37;10.00;55.60
71237;DHT22;58984;51.960;5.582;2023-01-24T05:02:03;10.00;55.60
71237;DHT22;58984;51.960;5.582;2023-01-24T05:04:28;10.00;55.60
71237;DHT22;58984;51.960;5.582;2023-01-24T05:06:54;10.00;55.60
71237;DHT22;58984;51.960;5.582;2023-01-24T05:09:19;10.00;55.60
71237;DHT22;58984;51.960;5.582;2023-01-24T05:11:45;10.00;55.60
71237;DHT22;58984;51.960;5.582;2023-01-24T05:14:11;10.00;55.70
71237;DHT22;58984;51.960;5.582;2023-01-24T05:16:37;10.00;55.60
71237;DHT22;58984;51.960;5.582;2023-01-24T05:19:03;10.00;55.70
71237;DHT22;58984;51.960;5.582;2023-01-24T05:21:29;9.90;56.40
71237;DHT22;58984;51.960;5.582;2023-01-24T05:23:55;9.90;56.40
71237;DHT22;58984;51.960;5.582;2023-01-24T05:26:21;9.90;56.40
71237;DHT22;58984;51.960;5.582;2023-01-24T05:28:48;9.90;56.40
71237;DHT22;58984;51.960;5.582;2023-01-24T05:31:14;9.90;56.30
71237;DHT22;58984;51.960;5.582;2023-01-24T05:33:40;9.90;56.40
71237;DHT22;58984;51.960;5.582;2023-01-24T05:36:15;10.00;55.60
71237;DHT22;58984;51.960;5.582;2023-01-24T05:38:42;9.90;56.40
71237;DHT22;58984;51.960;5.582;2023-01-24T05:41:09;9.90;56.30
71237;DHT22;58984;51.960;5.582;2023-01-24T05:43:36;9.90;56.40
71237;DHT22;58984;51.960;5.582;2023-01-24T05:46:07;9.90;56.40
71237;DHT22;58984;51.960;5.582;2023-01-24T05:48:34;9.90;56.40
71237;DHT22;58984;51.960;5.582;2023-01-24T05:51:05;9.90;56.30
71237;DHT22;58984;51.960;5.582;2023-01-24T05:53:32;9.90;56.30
71237;DHT22;58984;51.960;5.582;2023-01-24T05:56:00;9.90;56.40
71237;DHT22;58984;51.960;5.582;2023-01-24T05:58:30;9.90;56.40
71237;DHT22;58984;51.960;5.582;2023-01-24T06:00:57;9.90;56.40
71237;DHT22;58984;51.960;5.582;2023-01-24T06:03:22;9.90;56.40
71237;DHT22;58984;51.960;5.582;2023-01-24T06:05:49;9.90;56.40
71237;DHT22;58984;51.960;5.582;2023-01-24T06:08:16;9.90;56.40
71237;DHT22;58984;51.960;5.582;2023-01-24T06:10:42;9.90;56.40
71237;DHT22;58984;51.960;5.582;2023-01-24T06:13:08;9.90;56.40
71237;DHT22;58984;51.960;5.582;2023-01-24T06:15:34;9.90;56.50
71237;DHT22;58984;51.960;5.582;2023-01-24T06:18:00;9.90;56.40
71237;DHT22;58984;51.960;5.582;2023-01-24T06:20:26;9.90;56.40
71237;DHT22;58984;51.960;5.582;2023-01-24T06:22:54;9.90;56.40
71237;DHT22;58984;51.960;5.582;2023-01-24T06:25:25;9.90;56.40
71237;DHT22;58984;51.960;5.582;2023-01-24T06:27:52;9.80;56.30
71237;DHT22;58984;51.960;5.582;2023-01-24T06:30:19;9.90;56.40
71237;DHT22;58984;51.960;5.582;2023-01-24T06:35:33;9.80;56.30
71237;DHT22;58984;51.960;5.582;2023-01-24T06:38:02;9.80;56.30
71237;DHT22;58984;51.960;5.582;2023-01-24T06:40:28;9.80;56.20
71237;DHT22;58984;51.960;5.582;2023-01-24T06:42:54;9.80;56.30
71237;DHT22;58984;51.960;5.582;2023-01-24T06:45:20;9.80;56.30
71237;DHT22;58984;51.960;5.582;2023-01-24T06:47:46;9.80;56.30
71237;DHT22;58984;51.960;5.582;2023-01-24T06:50:20;9.90;56.30
71237;DHT22;58984;51.960;5.582;2023-01-24T06:52:47;9.80;56.30
71237;DHT22;58984;51.960;5.582;2023-01-24T06:55:13;9.80;56.30
71237;DHT22;58984;51.960;5.582;2023-01-24T06:57:39;9.80;56.30
71237;DHT22;58984;51.960;5.582;2023-01-24T07:00:05;9.80;56.30
71237;DHT22;58984;51.960;5.582;2023-01-24T07:02:31;9.80;56.30
71237;DHT22;58984;51.960;5.582;2023-01-24T07:04:57;9.80;56.30
71237;DHT22;58984;51.960;5.582;2023-01-24T07:07:22;9.80;56.20
71237;DHT22;58984;51.960;5.582;2023-01-24T07:09:48;9.80;56.20
71237;DHT22;58984;51.960;5.582;2023-01-24T07:12:13;9.80;56.20
71237;DHT22;58984;51.960;5.582;2023-01-24T07:14:39;9.80;56.20
71237;DHT22;58984;51.960;5.582;2023-01-24T07:17:04;9.80;55.80
71237;DHT22;58984;51.960;5.582;2023-01-24T07:19:30;9.80;56.20
71237;DHT22;58984;51.960;5.582;2023-01-24T07:21:57;9.80;56.30
71237;DHT22;58984;51.960;5.582;2023-01-24T07:24:25;9.80;56.20
71237;DHT22;58984;51.960;5.582;2023-01-24T07:26:51;9.80;56.30
71237;DHT22;58984;51.960;5.582;2023-01-24T07:29:21;9.80;56.30
71237;DHT22;58984;51.960;5.582;2023-01-24T07:31:47;9.80;56.20
71237;DHT22;58984;51.960;5.582;2023-01-24T07:34:14;9.80;56.30
71237;DHT22;58984;51.960;5.582;2023-01-24T07:36:41;9.80;56.30
71237;DHT22;58984;51.960;5.582;2023-01-24T07:39:07;9.80;56.20
71237;DHT22;58984;51.960;5.582;2023-01-24T07:41:35;9.80;56.20
71237;DHT22;58984;51.960;5.582;2023-01-24T07:44:01;9.80;56.20
71237;DHT22;58984;51.960;5.582;2023-01-24T07:46:33;9.80;56.20
71237;DHT22;58984;51.960;5.582;2023-01-24T07:48:59;9.80;56.20
71237;DHT22;58984;51.960;5.582;2023-01-24T07:51:25;9.80;56.20
71237;DHT22;58984;51.960;5.582;2023-01-24T07:53:51;9.70;56.10
71237;DHT22;58984;51.960;5.582;2023-01-24T07:56:16;9.70;56.10
71237;DHT22;58984;51.960;5.582;2023-01-24T07:58:42;9.80;56.30
71237;DHT22;58984;51.960;5.582;2023-01-24T08:01:08;9.80;56.30
71237;DHT22;58984;51.960;5.582;2023-01-24T08:03:34;9.80;56.30
71237;DHT22;58984;51.960;5.582;2023-01-24T08:05:59;9.70;56.20
71237;DHT22;58984;51.960;5.582;2023-01-24T08:08:25;9.80;56.30
71237;DHT22;58984;51.960;5.582;2023-01-24T08:10:51;9.80;56.90
71237;DHT22;58984;51.960;5.582;2023-01-24T08:13:16;9.70;56.20
71237;DHT22;58984;51.960;5.582;2023-01-24T08:15:42;9.80;56.30
71237;DHT22;58984;51.960;5.582;2023-01-24T08:18:07;9.70;56.20
71237;DHT22;58984;51.960;5.582;2023-01-24T08:20:33;9.80;56.30
71237;DHT22;58984;51.960;5.582;2023-01-24T08:22:59;9.70;56.20
71237;DHT22;58984;51.960;5.582;2023-01-24T08:25:27;9.70;56.20
71237;DHT22;58984;51.960;5.582;2023-01-24T08:27:55;9.70;56.20
71237;DHT22;58984;51.960;5.582;2023-01-24T08:30:21;9.70;56.20
71237;DHT22;58984;51.960;5.582;2023-01-24T08:32:46;9.70;56.20
71237;DHT22;58984;51.960;5.582;2023-01-24T08:35:12;9.80;56.30
71237;DHT22;58984;51.960;5.582;2023-01-24T08:37:37;9.70;56.20
71237;DHT22;58984;51.960;5.582;2023-01-24T08:40:04;9.70;56.20
71237;DHT22;58984;51.960;5.582;2023-01-24T08:42:29;9.80;56.30
71237;DHT22;58984;51.960;5.582;2023-01-24T08:44:55;9.70;56.80
71237;DHT22;58984;51.960;5.582;2023-01-24T08:47:20;9.70;56.30
71237;DHT22;58984;51.960;5.582;2023-01-24T08:49:46;9.70;56.20
71237;DHT22;58984;51.960;5.582;2023-01-24T08:52:11;9.70;56.20
71237;DHT22;58984;51.960;5.582;2023-01-24T08:54:37;9.80;56.30
71237;DHT22;58984;51.960;5.582;2023-01-24T08:57:04;9.70;56.30
71237;DHT22;58984;51.960;5.582;2023-01-24T08:59:30;9.70;56.30
71237;DHT22;58984;51.960;5.582;2023-01-24T09:01:55;9.80;56.40
71237;DHT22;58984;51.960;5.582;2023-01-24T09:04:21;9.70;56.30
71237;DHT22;58984;51.960;5.582;2023-01-24T09:06:47;9.70;56.30
71237;DHT22;58984;51.960;5.582;2023-01-24T09:09:13;9.80;56.40
71237;DHT22;58984;51.960;5.582;2023-01-24T09:11:40;9.70;56.30
71237;DHT22;58984;51.960;5.582;2023-01-24T09:14:05;9.70;56.40
71237;DHT22;58984;51.960;5.582;2023-01-24T09:16:31;9.70;56.40
71237;DHT22;58984;51.960;5.582;2023-01-24T09:18:56;9.70;56.40
71237;DHT22;58984;51.960;5.582;2023-01-24T09:21:22;9.70;56.40
71237;DHT22;58984;51.960;5.582;2023-01-24T09:23:48;9.70;56.30
71237;DHT22;58984;51.960;5.582;2023-01-24T09:26:13;9.80;57.00
71237;DHT22;58984;51.960;5.582;2023-01-24T09:28:42;9.70;56.30
71237;DHT22;58984;51.960;5.582;2023-01-24T09:31:08;9.70;56.40
71237;DHT22;58984;51.960;5.582;2023-01-24T09:33:34;9.70;56.40
71237;DHT22;58984;51.960;5.582;2023-01-24T09:36:02;9.70;56.40
71237;DHT22;58984;51.960;5.582;2023-01-24T09:38:30;9.80;56.50
71237;DHT22;58984;51.960;5.582;2023-01-24T09:43:52;9.70;56.50
71237;DHT22;58984;51.960;5.582;2023-01-24T09:46:31;9.70;56.50
71237;DHT22;58984;51.960;5.582;2023-01-24T09:51:46;9.70;56.50
71237;DHT22;58984;51.960;5.582;2023-01-24T09:54:21;9.70;56.50
71237;DHT22;58984;51.960;5.582;2023-01-24T09:56:54;9.70;56.50
71237;DHT22;58984;51.960;5.582;2023-01-24T09:59:24;9.70;56.50
71237;DHT22;58984;51.960;5.582;2023-01-24T10:01:52;9.70;56.50
71237;DHT22;58984;51.960;5.582;2023-01-24T10:04:29;9.80;56.60
71237;DHT22;58984;51.960;5.582;2023-01-24T10:07:08;9.70;56.50
71237;DHT22;58984;51.960;5.582;2023-01-24T10:10:10;9.80;56.60
71237;DHT22;58984;51.960;5.582;2023-01-24T10:15:53;9.70;56.50
71237;DHT22;58984;51.960;5.582;2023-01-24T10:18:38;9.70;56.40
71237;DHT22;58984;51.960;5.582;2023-01-24T10:23:50;9.80;57.10
71237;DHT22;58984;51.960;5.582;2023-01-24T10:28:55;9.70;56.50
71237;DHT22;58984;51.960;5.582;2023-01-24T10:31:27;9.70;56.50
71237;DHT22;58984;51.960;5.582;2023-01-24T10:34:07;9.70;56.40
71237;DHT22;58984;51.960;5.582;2023-01-24T10:36:55;9.80;56.60
71237;DHT22;58984;51.960;5.582;2023-01-24T10:39:24;9.70;56.30
71237;DHT22;58984;51.960;5.582;2023-01-24T10:41:50;9.80;56.50
71237;DHT22;58984;51.960;5.582;2023-01-24T10:44:24;9.70;56.50
71237;DHT22;58984;51.960;5.582;2023-01-24T10:49:41;9.70;56.50
71237;DHT22;58984;51.960;5.582;2023-01-24T10:52:12;9.80;56.60
71237;DHT22;58984;51.960;5.582;2023-01-24T10:55:03;9.80;56.60
71237;DHT22;58984;51.960;5.582;2023-01-24T10:57:37;9.80;56.60
71237;DHT22;58984;51.960;5.582;2023-01-24T11:02:54;9.70;56.60
71237;DHT22;58984;51.960;5.582;2023-01-24T11:05:21;9.80;56.60
71237;DHT22;58984;51.960;5.582;2023-01-24T11:07:50;9.80;56.60
71237;DHT22;58984;51.960;5.582;2023-01-24T11:12:57;9.80;56.60
71237;DHT22;58984;51.960;5.582;2023-01-24T11:15:33;9.80;56.60
71237;DHT22;58984;51.960;5.582;2023-01-24T11:18:20;9.80;56.50
71237;DHT22;58984;51.960;5.582;2023-01-24T11:20:46;9.80;56.50
71237;DHT22;58984;51.960;5.582;2023-01-24T11:23:17;9.80;56.50
71237;DHT22;58984;51.960;5.582;2023-01-24T11:26:00;9.80;56.50
71237;DHT22;58984;51.960;5.582;2023-01-24T11:28:37;9.80;56.50
71237;DHT22;58984;51.960;5.582;2023-01-24T11:31:10;9.80;56.50
71237;DHT22;58984;51.960;5.582;2023-01-24T11:34:09;9.80;56.60
71237;DHT22;58984;51.960;5.582;2023-01-24T11:40:00;9.80;56.50
71237;DHT22;58984;51.960;5.582;2023-01-24T11:42:54;9.90;56.50
71237;DHT22;58984;51.960;5.582;2023-01-24T11:48:19;9.80;56.50
71237;DHT22;58984;51.960;5.582;2023-01-24T11:50:58;9.80;56.50
71237;DHT22;58984;51.960;5.582;2023-01-24T12:01:32;9.80;56.60
71237;DHT22;58984;51.960;5.582;2023-01-24T12:09:24;9.80;56.60
71237;DHT22;58984;51.960;5.582;2023-01-24T12:14:39;9.80;56.50
71237;DHT22;58984;51.960;5.582;2023-01-24T12:17:15;9.90;56.70
71237;DHT22;58984;51.960;5.582;2023-01-24T12:20:14;9.90;56.70
71237;DHT22;58984;51.960;5.582;2023-01-24T12:22:42;9.90;56.50
71237;DHT22;58984;51.960;5.582;2023-01-24T12:25:28;9.90;56.50
71237;DHT22;58984;51.960;5.582;2023-01-24T12:28:04;9.80;56.40
71237;DHT22;58984;51.960;5.582;2023-01-24T12:30:47;9.90;56.50
71237;DHT22;58984;51.960;5.582;2023-01-24T12:33:55;9.90;56.50
71237;DHT22;58984;51.960;5.582;2023-01-24T12:36:46;9.80;56.50
71237;DHT22;58984;51.960;5.582;2023-01-24T12:39:21;9.90;56.60
71237;DHT22;58984;51.960;5.582;2023-01-24T12:41:59;9.90;56.50
71237;DHT22;58984;51.960;5.582;2023-01-24T12:44:32;9.90;56.50
71237;DHT22;58984;51.960;5.582;2023-01-24T12:47:15;9.90;56.70
71237;DHT22;58984;51.960;5.582;2023-01-24T12:50:17;9.90;56.50
71237;DHT22;58984;51.960;5.582;2023-01-24T12:56:10;9.90;56.40
71237;DHT22;58984;51.960;5.582;2023-01-24T12:58:40;9.90;56.40
71237;DHT22;58984;51.960;5.582;2023-01-24T13:07:03;10.00;55.60
71237;DHT22;58984;51.960;5.582;2023-01-24T13:09:52;10.00;55.60
71237;DHT22;58984;51.960;5.582;2023-01-24T13:12:23;9.90;56.40
71237;DHT22;58984;51.960;5.582;2023-01-24T13:14:53;9.90;56.30
71237;DHT22;58984;51.960;5.582;2023-01-24T13:20:18;10.00;55.60
71237;DHT22;58984;51.960;5.582;2023-01-24T13:26:22;9.90;56.40
71237;DHT22;58984;51.960;5.582;2023-01-24T13:32:13;9.90;56.40
71237;DHT22;58984;51.960;5.582;2023-01-24T13:34:49;10.00;55.70
71237;DHT22;58984;51.960;5.582;2023-01-24T13:37:22;9.90;56.40
71237;DHT22;58984;51.960;5.582;2023-01-24T13:39:48;10.00;55.60
71237;DHT22;58984;51.960;5.582;2023-01-24T13:42:35;10.00;55.60
71237;DHT22;58984;51.960;5.582;2023-01-24T13:47:52;10.00;55.50
71237;DHT22;58984;51.960;5.582;2023-01-24T13:50:20;10.00;55.50
71237;DHT22;58984;51.960;5.582;2023-01-24T13:53:06;10.00;55.50
71237;DHT22;58984;51.960;5.582;2023-01-24T14:00:57;10.00;55.40
71237;DHT22;58984;51.960;5.582;2023-01-24T14:03:36;10.00;55.40
71237;DHT22;58984;51.960;5.582;2023-01-24T14:13:54;10.00;55.50
71237;DHT22;58984;51.960;5.582;2023-01-24T14:21:53;10.00;55.30
71237;DHT22;58984;51.960;5.582;2023-01-24T14:24:35;10.00;55.30
71237;DHT22;58984;51.960;5.582;2023-01-24T14:27:37;10.00;55.30
71237;DHT22;58984;51.960;5.582;2023-01-24T14:32:46;10.00;55.30
71237;DHT22;58984;51.960;5.582;2023-01-24T14:35:15;10.00;55.30
71237;DHT22;58984;51.960;5.582;2023-01-24T14:37:44;10.00;55.30
71237;DHT22;58984;51.960;5.582;2023-01-24T14:40:24;10.10;55.50
71237;DHT22;58984;51.960;5.582;2023-01-24T14:43:01;10.00;55.40
71237;DHT22;58984;51.960;5.582;2023-01-24T14:45:29;10.00;55.30
71237;DHT22;58984;51.960;5.582;2023-01-24T14:47:56;10.10;55.40
71237;DHT22;58984;51.960;5.582;2023-01-24T14:50:32;10.10;55.40
71237;DHT22;58984;51.960;5.582;2023-01-24T14:53:41;10.10;55.40
71237;DHT22;58984;51.960;5.582;2023-01-24T14:55:47;10.10;55.40
71237;DHT22;58984;51.960;5.582;2023-01-24T15:00:40;10.00;55.30
71237;DHT22;58984;51.960;5.582;2023-01-24T15:03:05;10.00;55.30
71237;DHT22;58984;51.960;5.582;2023-01-24T15:05:32;10.10;55.40
71237;DHT22;58984;51.960;5.582;2023-01-24T15:08:00;10.10;55.40
71237;DHT22;58984;51.960;5.582;2023-01-24T15:10:37;10.10;55.30
71237;DHT22;58984;51.960;5.582;2023-01-24T15:13:06;10.00;55.20
71237;DHT22;58984;51.960;5.582;2023-01-24T15:15:32;10.10;54.90
71237;DHT22;58984;51.960;5.582;2023-01-24T15:18:07;10.10;55.30
71237;DHT22;58984;51.960;5.582;2023-01-24T15:20:46;10.00;55.30
71237;DHT22;58984;51.960;5.582;2023-01-24T15:23:19;10.10;55.30
71237;DHT22;58984;51.960;5.582;2023-01-24T15:25:45;10.00;55.30
71237;DHT22;58984;51.960;5.582;2023-01-24T15:28:28;10.10;55.30
71237;DHT22;58984;51.960;5.582;2023-01-24T15:30:56;10.00;55.20
71237;DHT22;58984;51.960;5.582;2023-01-24T15:33:23;10.00;55.10
71237;DHT22;58984;51.960;5.582;2023-01-24T15:35:50;10.00;55.10
71237;DHT22;58984;51.960;5.582;2023-01-24T15:38:24;10.10;55.30
71237;DHT22;58984;51.960;5.582;2023-01-24T15:43:24;10.00;55.10
71237;DHT22;58984;51.960;5.582;2023-01-24T15:51:43;10.00;55.10
71237;DHT22;58984;51.960;5.582;2023-01-24T15:54:13;10.00;55.20
71237;DHT22;58984;51.960;5.582;2023-01-24T15:56:41;10.00;55.10
71237;DHT22;58984;51.960;5.582;2023-01-24T15:59:17;10.00;55.10
71237;DHT22;58984;51.960;5.582;2023-01-24T16:01:43;10.00;55.80
71237;DHT22;58984;51.960;5.582;2023-01-24T16:04:21;10.00;55.10
71237;DHT22;58984;51.960;5.582;2023-01-24T16:06:47;10.00;55.70
71237;DHT22;58984;51.960;5.582;2023-01-24T16:09:13;10.00;55.10
71237;DHT22;58984;51.960;5.582;2023-01-24T16:11:41;10.00;55.10
71237;DHT22;58984;51.960;5.582;2023-01-24T16:14:13;10.00;55.10
71237;DHT22;58984;51.960;5.582;2023-01-24T16:16:40;10.00;55.10
71237;DHT22;58984;51.960;5.582;2023-01-24T16:19:18;10.00;55.00
71237;DHT22;58984;51.960;5.582;2023-01-24T16:21:44;10.00;55.10
71237;DHT22;58984;51.960;5.582;2023-01-24T16:24:10;10.00;55.00
71237;DHT22;58984;51.960;5.582;2023-01-24T16:26:38;10.00;55.10
71237;DHT22;58984;51.960;5.582;2023-01-24T16:29:16;10.00;55.00
71237;DHT22;58984;51.960;5.582;2023-01-24T16:31:41;10.00;55.00
71237;DHT22;58984;51.960;5.582;2023-01-24T16:34:07;10.10;55.10
71237;DHT22;58984;51.960;5.582;2023-01-24T16:36:33;10.00;55.30
71237;DHT22;58984;51.960;5.582;2023-01-24T16:38:59;10.00;55.00
71237;DHT22;58984;51.960;5.582;2023-01-24T16:41:25;10.00;55.00
71237;DHT22;58984;51.960;5.582;2023-01-24T16:43:50;10.00;55.00
71237;DHT22;58984;51.960;5.582;2023-01-24T16:46:18;10.00;55.00
71237;DHT22;58984;51.960;5.582;2023-01-24T16:48:44;10.00;55.10
71237;DHT22;58984;51.960;5.582;2023-01-24T16:51:11;10.00;55.00
71237;DHT22;58984;51.960;5.582;2023-01-24T16:53:37;10.00;55.00
71237;DHT22;58984;51.960;5.582;2023-01-24T16:56:02;10.00;55.00
71237;DHT22;58984;51.960;5.582;2023-01-24T16:58:28;10.00;55.00
71237;DHT22;58984;51.960;5.582;2023-01-24T17:00:55;10.00;54.90
71237;DHT22;58984;51.960;5.582;2023-01-24T17:03:20;10.00;54.90
71237;DHT22;58984;51.960;5.582;2023-01-24T17:05:46;10.00;54.80
71237;DHT22;58984;51.960;5.582;2023-01-24T17:08:14;10.00;54.80
71237;DHT22;58984;51.960;5.582;2023-01-24T17:10:41;10.00;54.80
71237;DHT22;58984;51.960;5.582;2023-01-24T17:13:12;10.00;54.80
71237;DHT22;58984;51.960;5.582;2023-01-24T17:15:38;10.00;54.80
71237;DHT22;58984;51.960;5.582;2023-01-24T17:18:05;10.00;54.80
71237;DHT22;58984;51.960;5.582;2023-01-24T17:20:32;10.00;54.80
71237;DHT22;58984;51.960;5.582;2023-01-24T17:22:58;10.00;54.70
71237;DHT22;58984;51.960;5.582;2023-01-24T17:25:28;10.00;54.70
71237;DHT22;58984;51.960;5.582;2023-01-24T17:27:54;9.90;55.60
71237;DHT22;58984;51.960;5.582;2023-01-24T17:30:20;10.00;54.80
71237;DHT22;58984;51.960;5.582;2023-01-24T17:32:45;10.00;54.80
71237;DHT22;58984;51.960;5.582;2023-01-24T17:35:11;10.00;54.70
71237;DHT22;58984;51.960;5.582;2023-01-24T17:37:36;10.00;54.80
71237;DHT22;58984;51.960;5.582;2023-01-24T17:40:03;9.90;55.50